Time;durP1;ratioP1;P1;durP2;ratioP2;P2;SDS_P1;SDS_P2;PMS_P1;PMS_P2;Temp;Humidity;BMP_temperature;BMP_pressure;BME280_temperature;BME280_humidity;BME280_pressure;Samples;Min_cycle;Max_cycle;Signal;HPM_P1;HPM_P2
2022/12/08 00:00:00;;;;;;;20.75;10.38;;;3.40;1.00;;;;;;5011543;28;20379;-78
2022/12/08 00:02:26;;;;;;;16.52;10.48;;;3.50;1.00;;;;;;5010673;28;20053;-78
2022/12/08 00:10:22;;;;;;;15.93;9.38;;;3.40;1.00;;;;;;5016062;28;20154;-76
2022/12/08 00:12:48;;;;;;;18.15;10.38;;;3.40;1.00;;;;;;5014914;28;20037;-77
2022/12/08 00:15:14;;;;;;;17.20;9.73;;;3.40;1.00;;;;;;5015269;28;20037;-78
2022/12/08 00:17:40;;;;;;;15.98;9.43;;;3.40;1.00;;;;;;5014258;28;20030;-76
2022/12/08 00:20:07;;;;;;;17.52;9.27;;;3.40;1.00;;;;;;5015030;28;20030;-76
2022/12/08 00:22:33;;;;;;;15.85;9.40;;;3.40;1.00;;;;;;5014376;28;20352;-76
2022/12/08 00:24:59;;;;;;;16.33;9.38;;;3.40;1.00;;;;;;5015153;28;20045;-77
2022/12/08 00:27:25;;;;;;;15.85;8.68;;;3.50;1.00;;;;;;5014171;28;20030;-75
2022/12/08 00:29:51;;;;;;;16.65;9.20;;;3.40;1.00;;;;;;4997749;28;20053;-77
2022/12/08 00:32:18;;;;;;;19.80;9.68;;;3.40;1.00;;;;;;5014796;28;20030;-77
2022/12/08 00:34:44;;;;;;;14.93;9.20;;;3.40;1.00;;;;;;5013928;28;20026;-77
2022/12/08 00:37:10;;;;;;;15.02;8.55;;;3.40;1.00;;;;;;5014711;28;20034;-77
2022/12/08 00:39:36;;;;;;;18.95;9.10;;;3.40;1.00;;;;;;5013994;28;20053;-76
2022/12/08 00:42:11;;;;;;;16.85;9.35;;;3.40;1.00;;;;;;5014621;28;20042;-77
2022/12/08 00:44:41;;;;;;;18.13;8.75;;;3.40;1.00;;;;;;5013952;28;20053;-77
2022/12/08 00:47:08;;;;;;;14.60;8.10;;;3.40;1.00;;;;;;4997395;28;20037;-78
2022/12/08 00:49:34;;;;;;;14.68;9.00;;;3.30;1.00;;;;;;5014062;28;20037;-77
2022/12/08 00:52:00;;;;;;;15.77;8.00;;;3.40;1.00;;;;;;5014667;28;20049;-76
2022/12/08 00:54:26;;;;;;;14.90;8.38;;;3.40;1.00;;;;;;5014116;28;20038;-75
2022/12/08 00:56:53;;;;;;;14.88;8.25;;;3.40;1.00;;;;;;5014468;28;20030;-77
2022/12/08 00:59:19;;;;;;;18.63;9.10;;;3.40;1.00;;;;;;4997116;28;20030;-77
2022/12/08 01:01:46;;;;;;;16.80;8.27;;;3.40;1.00;;;;;;5019671;28;20038;-77
2022/12/08 01:04:15;;;;;;;15.05;9.10;;;3.40;1.00;;;;;;5016443;28;20053;-77
2022/12/08 01:06:42;;;;;;;16.88;10.07;;;3.40;1.00;;;;;;4997418;28;20030;-76
2022/12/08 01:09:09;;;;;;;17.60;8.82;;;3.40;1.00;;;;;;4997723;28;20065;-77
2022/12/08 01:11:35;;;;;;;13.73;8.30;;;3.30;1.00;;;;;;5013860;28;20038;-76
2022/12/08 01:14:02;;;;;;;14.02;8.63;;;3.30;1.00;;;;;;5016705;28;20131;-77
2022/12/08 01:16:31;;;;;;;16.02;7.80;;;3.30;1.00;;;;;;5016206;28;20033;-75
2022/12/08 01:18:58;;;;;;;15.13;8.40;;;3.30;1.00;;;;;;5015699;28;20045;-77
2022/12/08 01:21:25;;;;;;;17.67;8.60;;;3.30;1.00;;;;;;5013407;28;20357;-75
2022/12/08 01:23:54;;;;;;;14.77;8.73;;;3.30;1.00;;;;;;5014904;28;20033;-77
2022/12/08 01:26:20;;;;;;;16.50;8.38;;;3.20;1.00;;;;;;5013813;28;20041;-77
2022/12/08 01:28:47;;;;;;;12.52;8.00;;;3.20;1.00;;;;;;5013031;28;20029;-77
2022/12/08 01:31:18;;;;;;;16.25;9.52;;;3.10;1.00;;;;;;5013935;28;20038;-77
2022/12/08 01:33:45;;;;;;;16.98;9.02;;;3.10;1.00;;;;;;5012715;28;20057;-76
2022/12/08 01:36:24;;;;;;;15.48;8.30;;;3.10;2.50;;;;;;5013846;28;20376;-77
2022/12/08 01:38:52;;;;;;;15.02;8.55;;;3.10;4.60;;;;;;5012865;28;20032;-76
2022/12/08 01:41:21;;;;;;;15.77;8.35;;;3.10;5.80;;;;;;5013786;28;20042;-77
2022/12/08 01:44:07;;;;;;;18.95;8.88;;;3.10;5.90;;;;;;5012785;28;20026;-77
2022/12/08 01:46:34;;;;;;;14.75;7.55;;;3.10;5.90;;;;;;5013779;28;20379;-75
2022/12/08 01:49:14;;;;;;;17.30;10.05;;;3.00;6.70;;;;;;5013837;28;20046;-77
2022/12/08 01:51:46;;;;;;;13.38;8.82;;;3.00;8.60;;;;;;5016174;28;20061;-76
2022/12/08 01:54:12;;;;;;;;;;;3.00;10.00;;;;;;5014142;28;20040;-77
2022/12/08 01:56:51;;;;;;;16.23;8.52;;;2.90;10.20;;;;;;5012573;28;20358;-76
2022/12/08 01:59:18;;;;;;;17.38;8.63;;;3.00;10.50;;;;;;5013944;28;20474;-77
2022/12/08 02:01:50;;;;;;;16.15;9.07;;;3.00;9.70;;;;;;5012184;28;20041;-77
2022/12/08 02:04:16;;;;;;;13.40;7.75;;;3.00;9.40;;;;;;5013509;28;20038;-77
2022/12/08 02:06:44;;;;;;;15.73;8.82;;;3.00;7.60;;;;;;5013060;28;20042;-78
2022/12/08 02:09:11;;;;;;;12.18;7.55;;;3.10;4.90;;;;;;5013562;28;20034;-78
2022/12/08 02:11:37;;;;;;;15.77;7.70;;;3.10;3.30;;;;;;5012473;28;20034;-77
2022/12/08 02:14:07;;;;;;;15.60;7.78;;;3.10;1.00;;;;;;5023356;28;20053;-76
2022/12/08 02:16:44;;;;;;;12.85;7.25;;;3.10;1.00;;;;;;5012856;28;20022;-77
2022/12/08 02:19:48;;;;;;;15.43;8.00;;;3.10;1.00;;;;;;5016996;28;20395;-77
2022/12/08 02:22:24;;;;;;;16.48;8.07;;;3.10;1.00;;;;;;5013200;28;20042;-77
2022/12/08 02:25:25;;;;;;;14.85;7.85;;;3.10;1.00;;;;;;5012150;28;20053;-77
2022/12/08 02:28:06;;;;;;;;;;;3.10;1.00;;;;;;5012688;28;20053;-77
2022/12/08 02:30:57;;;;;;;9.02;5.18;;;3.10;1.00;;;;;;5012081;28;19922;-75
2022/12/08 02:33:53;;;;;;;10.13;5.53;;;3.10;1.00;;;;;;5012356;28;20044;-76
2022/12/08 02:36:58;;;;;;;16.77;8.02;;;3.10;1.00;;;;;;5012779;28;20038;-77
2022/12/08 02:39:34;;;;;;;11.52;6.82;;;3.10;1.00;;;;;;5012127;28;20038;-77
2022/12/08 02:42:22;;;;;;;14.57;7.47;;;3.10;1.00;;;;;;5012844;28;20042;-78
2022/12/08 02:44:59;;;;;;;13.77;6.63;;;3.10;1.00;;;;;;5018086;28;20034;-78
2022/12/08 02:47:26;;;;;;;10.95;7.03;;;3.00;1.00;;;;;;5014442;28;20041;-77
2022/12/08 02:49:55;;;;;;;12.63;6.40;;;3.00;1.00;;;;;;5011879;28;20730;-77
2022/12/08 02:52:21;;;;;;;14.68;7.55;;;3.00;1.00;;;;;;5012174;28;20041;-77
2022/12/08 02:54:55;;;;;;;12.88;7.53;;;3.00;1.00;;;;;;5011160;28;20029;-77
2022/12/08 02:57:21;;;;;;;13.18;7.75;;;3.00;1.00;;;;;;4994832;28;20046;-78
2022/12/08 03:00:12;;;;;;;15.32;8.40;;;3.00;1.00;;;;;;5011335;28;20034;-77
2022/12/08 03:03:03;;;;;;;15.35;7.72;;;3.00;1.00;;;;;;5011262;28;20399;-77
2022/12/08 03:06:11;;;;;;;14.10;8.75;;;3.00;1.00;;;;;;5012434;28;20439;-76
2022/12/08 03:08:50;;;;;;;18.35;8.40;;;3.00;2.90;;;;;;4982506;28;20083;-77
2022/12/08 03:11:23;;;;;;;17.02;9.68;;;2.90;4.50;;;;;;5011895;28;20487;-78
2022/12/08 03:13:58;;;;;;;15.25;8.38;;;2.90;4.80;;;;;;5011263;28;20030;-77
2022/12/08 03:16:28;;;;;;;15.43;8.38;;;2.80;6.80;;;;;;5012162;28;20375;-77
2022/12/08 03:19:05;;;;;;;15.00;8.38;;;2.80;7.60;;;;;;5011290;28;20027;-77
2022/12/08 03:21:33;;;;;;;14.05;8.85;;;2.80;7.10;;;;;;5011676;28;20411;-75
2022/12/08 03:24:03;;;;;;;16.20;8.77;;;2.80;6.80;;;;;;5011739;28;20026;-77
2022/12/08 03:26:34;;;;;;;16.45;8.57;;;2.80;7.80;;;;;;5011962;28;20044;-77
2022/12/08 03:29:01;;;;;;;15.63;8.48;;;2.80;8.50;;;;;;5011533;28;20057;-76
2022/12/08 03:31:32;;;;;;;16.63;9.15;;;2.80;8.90;;;;;;5011412;28;20042;-77
2022/12/08 03:34:01;;;;;;;16.42;9.18;;;2.80;9.70;;;;;;5011409;28;20038;-78
2022/12/08 03:36:27;;;;;;;17.30;8.65;;;2.80;11.10;;;;;;5014518;28;20049;-78
2022/12/08 03:38:54;;;;;;;19.10;9.27;;;2.80;9.90;;;;;;5010923;28;20038;-77
2022/12/08 03:41:21;;;;;;;19.23;9.13;;;2.80;10.10;;;;;;5011617;28;20391;-78
2022/12/08 03:43:50;;;;;;;16.20;8.98;;;2.80;10.70;;;;;;5010959;28;20494;-76
2022/12/08 03:46:18;;;;;;;19.33;9.02;;;2.80;10.90;;;;;;5015820;28;20459;-77
2022/12/08 03:48:45;;;;;;;19.52;9.73;;;2.80;12.20;;;;;;5014963;28;20034;-78
2022/12/08 03:51:11;;;;;;;17.10;9.63;;;2.80;12.20;;;;;;5015761;28;20033;-77
2022/12/08 03:53:38;;;;;;;15.95;8.90;;;2.80;13.80;;;;;;5014590;28;20427;-75
2022/12/08 03:56:12;;;;;;;18.60;9.88;;;2.70;15.50;;;;;;5015832;28;20060;-78
2022/12/08 03:58:38;;;;;;;18.27;10.88;;;2.70;16.60;;;;;;5015055;28;20041;-76
2022/12/08 04:01:04;;;;;;;19.42;9.95;;;2.70;18.00;;;;;;5016754;28;20041;-76
2022/12/08 04:03:31;;;;;;;19.80;10.55;;;2.60;19.70;;;;;;5017745;28;20474;-77
2022/12/08 04:05:57;;;;;;;15.25;9.02;;;2.60;21.20;;;;;;5016254;28;20022;-78
2022/12/08 04:08:23;;;;;;;20.52;10.82;;;2.60;22.50;;;;;;5017689;28;20038;-77
2022/12/08 04:10:49;;;;;;;18.25;9.80;;;2.60;23.30;;;;;;5014528;28;20038;-77
2022/12/08 04:13:15;;;;;;;21.33;11.45;;;2.60;24.30;;;;;;5015314;28;20418;-77
2022/12/08 04:15:48;;;;;;;16.35;10.43;;;2.50;24.70;;;;;;5014673;28;20037;-76
2022/12/08 04:18:14;;;;;;;20.85;11.68;;;2.50;26.30;;;;;;5015056;28;20025;-78
2022/12/08 04:20:43;;;;;;;19.25;11.95;;;2.50;27.20;;;;;;5014203;28;20037;-76
2022/12/08 04:23:09;;;;;;;19.88;10.38;;;2.50;26.50;;;;;;5014879;28;20045;-77
2022/12/08 04:25:36;;;;;;;17.90;10.20;;;2.50;27.30;;;;;;4997620;28;20034;-75
2022/12/08 04:28:03;;;;;;;19.55;10.38;;;2.50;29.00;;;;;;5021613;28;20034;-77
2022/12/08 04:30:30;;;;;;;17.80;10.73;;;2.40;31.10;;;;;;5015997;28;20038;-77
2022/12/08 04:32:56;;;;;;;25.15;11.30;;;2.40;33.70;;;;;;5014293;28;20038;-77
2022/12/08 04:35:23;;;;;;;24.25;11.27;;;2.40;37.90;;;;;;5015183;28;20046;-78
2022/12/08 04:37:49;;;;;;;19.00;11.75;;;2.30;42.10;;;;;;4996816;28;20057;-76
2022/12/08 04:40:15;;;;;;;22.15;12.68;;;2.20;45.30;;;;;;5015378;28;20034;-77
2022/12/08 04:42:41;;;;;;;21.23;11.50;;;2.30;49.80;;;;;;5014291;28;20391;-75
2022/12/08 04:45:08;;;;;;;20.10;10.82;;;2.20;54.10;;;;;;5014399;28;20033;-78
2022/12/08 04:47:34;;;;;;;22.63;11.57;;;2.20;56.20;;;;;;5013646;28;20483;-76
2022/12/08 04:50:00;;;;;;;23.35;12.43;;;2.20;58.50;;;;;;5001840;28;20030;-77
2022/12/08 04:52:26;;;;;;;22.50;12.20;;;2.20;61.40;;;;;;4995408;28;20038;-77
2022/12/08 04:54:52;;;;;;;22.77;12.90;;;2.20;64.00;;;;;;4994399;28;20031;-77
2022/12/08 04:57:18;;;;;;;25.00;12.85;;;2.10;65.90;;;;;;4994729;28;20034;-77
2022/12/08 04:59:45;;;;;;;25.73;13.82;;;2.20;66.30;;;;;;4994266;28;20031;-76
2022/12/08 05:02:12;;;;;;;22.80;12.48;;;2.10;64.40;;;;;;4995264;28;20045;-78
2022/12/08 05:04:38;;;;;;;21.45;12.55;;;2.00;65.20;;;;;;4994970;28;20030;-76
2022/12/08 05:07:04;;;;;;;26.05;13.43;;;2.00;67.10;;;;;;4993946;28;20041;-77
2022/12/08 05:09:30;;;;;;;22.15;12.68;;;2.00;69.50;;;;;;4976717;28;20484;-77
2022/12/08 05:11:56;;;;;;;23.60;12.43;;;2.00;71.70;;;;;;4993794;28;20487;-76
2022/12/08 05:14:22;;;;;;;26.90;13.23;;;2.00;73.80;;;;;;4994530;28;20030;-77
2022/12/08 05:16:49;;;;;;;25.63;13.55;;;2.00;75.40;;;;;;5000631;28;20045;-76
2022/12/08 05:19:15;;;;;;;26.02;13.77;;;2.00;77.20;;;;;;5013614;28;20026;-77
2022/12/08 05:21:42;;;;;;;29.77;13.93;;;2.00;78.80;;;;;;5013391;28;20030;-75
2022/12/08 05:24:09;;;;;;;29.00;14.05;;;2.00;79.20;;;;;;5013778;28;20045;-76
2022/12/08 05:26:35;;;;;;;24.70;13.18;;;2.00;79.50;;;;;;5014231;28;20406;-78
2022/12/08 05:29:01;;;;;;;23.65;12.55;;;2.00;79.20;;;;;;5012853;28;20037;-77
2022/12/08 05:31:27;;;;;;;26.10;12.95;;;2.10;80.40;;;;;;5013710;28;20026;-77
2022/12/08 05:33:54;;;;;;;21.65;13.70;;;2.00;78.30;;;;;;5013005;28;20640;-76
2022/12/08 05:36:20;;;;;;;22.38;12.23;;;2.00;79.50;;;;;;4996525;28;20034;-78
2022/12/08 05:38:46;;;;;;;26.73;12.95;;;2.00;81.00;;;;;;5013446;28;20033;-77
2022/12/08 05:41:14;;;;;;;22.17;13.38;;;2.00;81.70;;;;;;5000221;28;20045;-77
2022/12/08 05:43:41;;;;;;;20.92;11.60;;;2.00;83.20;;;;;;5014267;28;20042;-75
2022/12/08 05:46:07;;;;;;;25.95;13.40;;;2.00;84.20;;;;;;5013206;28;20038;-77
2022/12/08 05:48:34;;;;;;;29.17;12.98;;;2.00;85.00;;;;;;5013505;28;20057;-76
2022/12/08 05:51:01;;;;;;;24.40;14.68;;;2.00;86.50;;;;;;5013171;28;20026;-77
2022/12/08 05:53:27;;;;;;;25.90;13.27;;;2.00;85.60;;;;;;5013318;28;20044;-77
2022/12/08 05:55:53;;;;;;;29.00;13.60;;;2.00;85.00;;;;;;5012774;28;20372;-77
2022/12/08 05:58:21;;;;;;;25.02;13.13;;;2.00;85.50;;;;;;5013744;28;20030;-77
2022/12/08 06:00:49;;;;;;;19.67;10.98;;;2.00;85.60;;;;;;4995920;28;20045;-77
2022/12/08 06:03:17;;;;;;;21.55;11.48;;;2.00;85.50;;;;;;4972927;28;20051;-81
2022/12/08 06:05:46;;;;;;;26.95;12.43;;;2.10;86.30;;;;;;4974537;28;20499;-75
2022/12/08 06:08:12;;;;;;;25.55;12.63;;;2.10;85.80;;;;;;4973601;28;20039;-75
2022/12/08 06:10:42;;;;;;;21.33;11.68;;;2.10;82.10;;;;;;4974318;28;20038;-76
2022/12/08 06:13:09;;;;;;;26.25;12.55;;;2.10;81.10;;;;;;4974108;28;20042;-76
2022/12/08 06:15:37;;;;;;;25.33;12.07;;;2.10;79.00;;;;;;4973943;28;20464;-76
2022/12/08 06:18:03;;;;;;;21.40;11.18;;;2.10;77.90;;;;;;4973106;28;20041;-76
2022/12/08 06:20:30;;;;;;;24.58;11.95;;;2.10;76.70;;;;;;4974195;28;20496;-77
2022/12/08 06:22:56;;;;;;;21.80;12.45;;;2.20;76.70;;;;;;4978807;28;20034;-76
2022/12/08 06:25:23;;;;;;;22.05;13.02;;;2.20;75.70;;;;;;4993047;28;20045;-77
2022/12/08 06:27:49;;;;;;;19.38;11.15;;;2.20;72.00;;;;;;4984542;28;20033;-77
2022/12/08 06:30:16;;;;;;;24.55;11.48;;;2.20;69.40;;;;;;4974358;28;20039;-77
2022/12/08 06:32:43;;;;;;;25.60;11.27;;;2.20;67.60;;;;;;4976022;28;20038;-77
2022/12/08 06:35:09;;;;;;;23.00;10.52;;;2.30;61.70;;;;;;4972143;28;20058;-79
2022/12/08 06:37:36;;;;;;;18.52;11.48;;;2.30;55.40;;;;;;4973638;28;20031;-76
2022/12/08 06:40:03;;;;;;;22.80;11.45;;;2.40;52.40;;;;;;4972683;28;20034;-77
2022/12/08 06:42:45;;;;;;;22.35;11.90;;;2.40;49.90;;;;;;4973424;28;20042;-77
2022/12/08 06:45:14;;;;;;;22.52;12.48;;;2.40;49.90;;;;;;4973509;28;20047;-77
2022/12/08 06:47:40;;;;;;;22.02;12.45;;;2.40;49.70;;;;;;4973669;28;20042;-78
2022/12/08 06:50:08;;;;;;;24.77;14.18;;;2.40;48.00;;;;;;4972647;28;20214;-76
2022/12/08 06:52:34;;;;;;;21.27;10.77;;;2.40;46.60;;;;;;4973325;28;20046;-76
2022/12/08 06:55:00;;;;;;;19.85;11.68;;;2.40;45.60;;;;;;4972753;28;20030;-77
2022/12/08 06:57:26;;;;;;;23.17;11.88;;;2.40;45.40;;;;;;4973722;28;20046;-77
2022/12/08 06:59:52;;;;;;;21.77;11.75;;;2.40;45.10;;;;;;4972330;28;20030;-76
2022/12/08 07:02:19;;;;;;;23.10;10.55;;;2.40;42.50;;;;;;4974891;28;20038;-77
2022/12/08 07:04:45;;;;;;;22.15;11.25;;;2.40;39.40;;;;;;4992057;28;20419;-76
2022/12/08 07:07:11;;;;;;;20.50;11.45;;;2.50;38.40;;;;;;4992569;28;20487;-77
2022/12/08 07:09:37;;;;;;;19.92;10.23;;;2.40;35.00;;;;;;4992797;28;20034;-76
2022/12/08 07:12:04;;;;;;;16.08;8.68;;;2.40;31.80;;;;;;4991438;28;20472;-77
2022/12/08 07:14:30;;;;;;;19.00;10.60;;;2.40;28.00;;;;;;4995669;28;20363;-77
2022/12/08 07:16:56;;;;;;;16.50;8.93;;;2.50;26.20;;;;;;4994748;28;20053;-76
2022/12/08 07:19:22;;;;;;;16.55;8.68;;;2.50;23.70;;;;;;5001316;28;20026;-76
2022/12/08 07:21:48;;;;;;;21.10;10.93;;;2.50;22.00;;;;;;5002027;28;20033;-75
2022/12/08 07:24:14;;;;;;;19.65;9.23;;;2.50;21.90;;;;;;5001877;28;20041;-76
2022/12/08 07:26:41;;;;;;;15.15;9.30;;;2.50;22.70;;;;;;5002429;28;20029;-77
2022/12/08 07:29:09;;;;;;;15.00;7.68;;;2.50;22.30;;;;;;5001091;28;20026;-76
2022/12/08 07:31:36;;;;;;;17.85;9.55;;;2.50;20.80;;;;;;5005840;28;20049;-77
2022/12/08 07:34:02;;;;;;;27.17;10.70;;;2.50;21.70;;;;;;4993598;28;20041;-77
2022/12/08 07:36:28;;;;;;;15.15;9.23;;;2.50;21.80;;;;;;4999797;28;20388;-77
2022/12/08 07:38:55;;;;;;;13.63;7.53;;;2.50;21.00;;;;;;4993452;28;20027;-76
2022/12/08 07:41:23;;;;;;;13.23;7.38;;;2.50;21.60;;;;;;4992323;28;20033;-77
2022/12/08 07:43:50;;;;;;;16.08;8.35;;;2.60;21.10;;;;;;4994784;28;20034;-76
2022/12/08 07:46:19;;;;;;;15.13;7.90;;;2.60;20.20;;;;;;5004216;28;20045;-77
2022/12/08 07:48:45;;;;;;;15.55;8.40;;;2.60;19.60;;;;;;4994258;28;20038;-78
2022/12/08 07:51:14;;;;;;;17.38;8.75;;;2.60;18.60;;;;;;4991706;28;20456;-77
2022/12/08 07:53:41;;;;;;;69.32;36.15;;;2.60;17.70;;;;;;4992410;28;20399;-78
2022/12/08 07:56:09;;;;;;;46.72;23.75;;;2.60;17.50;;;;;;4991891;28;20034;-78
2022/12/08 07:58:35;;;;;;;121.35;58.78;;;2.70;18.00;;;;;;4992425;28;20035;-79
2022/12/08 08:01:02;;;;;;;66.38;28.80;;;2.70;17.50;;;;;;4981171;28;20029;-78
2022/12/08 08:03:28;;;;;;;27.73;13.45;;;2.70;15.10;;;;;;5001451;28;20053;-78
2022/12/08 08:05:54;;;;;;;46.55;20.05;;;2.80;13.80;;;;;;5002704;28;20030;-77
2022/12/08 08:08:20;;;;;;;73.40;33.33;;;2.80;13.70;;;;;;5000166;28;20035;-78
2022/12/08 08:10:46;;;;;;;67.60;27.10;;;2.80;11.80;;;;;;5000313;28;20459;-78
2022/12/08 08:13:13;;;;;;;102.97;53.30;;;2.90;9.30;;;;;;4987414;28;20220;-78
2022/12/08 08:15:39;;;;;;;98.47;47.35;;;2.90;7.40;;;;;;5008282;28;20100;-78
2022/12/08 08:18:06;;;;;;;79.75;36.45;;;2.90;7.50;;;;;;4998958;28;20034;-78
2022/12/08 08:20:32;;;;;;;47.13;22.75;;;3.00;6.50;;;;;;4999728;28;20034;-78
2022/12/08 08:22:58;;;;;;;24.38;12.35;;;3.00;6.70;;;;;;4998713;28;20034;-77
2022/12/08 08:25:24;;;;;;;20.88;10.15;;;3.00;7.60;;;;;;5002335;28;20030;-78
2022/12/08 08:27:51;;;;;;;16.33;8.82;;;3.10;5.90;;;;;;5001946;28;20038;-77
2022/12/08 08:30:17;;;;;;;78.72;35.50;;;3.10;3.10;;;;;;5010496;28;20061;-78
2022/12/08 08:32:44;;;;;;;51.58;23.42;;;3.10;2.20;;;;;;4998554;28;20068;-78
2022/12/08 08:35:10;;;;;;;32.55;14.57;;;3.10;1.00;;;;;;5014358;28;20730;-78
2022/12/08 08:37:36;;;;;;;32.03;16.40;;;3.10;1.00;;;;;;5015368;28;20360;-79
2022/12/08 08:40:02;;;;;;;36.75;19.90;;;3.10;1.00;;;;;;5006424;28;20030;-78
2022/12/08 08:42:29;;;;;;;94.93;50.20;;;3.20;1.00;;;;;;5002985;28;20034;-78
2022/12/08 08:44:55;;;;;;;55.25;28.58;;;3.20;1.00;;;;;;5005574;28;20467;-76
2022/12/08 08:47:21;;;;;;;55.80;29.38;;;3.20;1.00;;;;;;4993053;28;20033;-78
2022/12/08 08:49:47;;;;;;;31.08;18.05;;;3.20;1.00;;;;;;5004875;28;20022;-78
2022/12/08 08:52:13;;;;;;;21.67;11.20;;;3.20;1.00;;;;;;5006578;28;20033;-79
2022/12/08 08:54:39;;;;;;;12.68;8.07;;;3.30;1.00;;;;;;5005544;28;20030;-78
2022/12/08 08:57:06;;;;;;;15.60;9.18;;;3.30;1.00;;;;;;4987348;28;20377;-78
2022/12/08 08:59:32;;;;;;;19.30;11.23;;;3.40;1.00;;;;;;5002215;28;20034;-78
2022/12/08 09:01:58;;;;;;;19.33;10.52;;;3.40;1.00;;;;;;4999861;28;20026;-77
2022/12/08 09:04:24;;;;;;;14.00;8.25;;;3.40;1.00;;;;;;5003068;28;20050;-77
2022/12/08 09:06:50;;;;;;;24.33;13.98;;;3.50;1.00;;;;;;5013014;28;20061;-78
2022/12/08 09:09:16;;;;;;;18.23;10.93;;;3.60;1.00;;;;;;5014038;28;20041;-78
2022/12/08 09:11:43;;;;;;;19.88;10.85;;;3.70;1.00;;;;;;5014351;28;20030;-78
2022/12/08 09:14:16;;;;;;;16.63;9.10;;;3.80;1.00;;;;;;5015062;28;20486;-77
2022/12/08 09:16:42;;;;;;;15.98;7.93;;;3.70;1.00;;;;;;5014835;28;20034;-78
2022/12/08 09:19:08;;;;;;;15.10;8.50;;;3.90;1.00;;;;;;4996267;28;20046;-78
2022/12/08 09:21:35;;;;;;;13.02;7.57;;;3.90;1.00;;;;;;5014612;28;20386;-77
2022/12/08 09:24:01;;;;;;;13.60;7.78;;;3.90;1.00;;;;;;5012240;28;20390;-78
2022/12/08 09:26:27;;;;;;;14.55;9.25;;;3.90;1.00;;;;;;5004201;28;20034;-79
2022/12/08 09:28:55;;;;;;;13.15;7.28;;;4.00;1.00;;;;;;4994762;28;20037;-76
2022/12/08 09:31:22;;;;;;;14.77;7.13;;;4.00;1.00;;;;;;4994396;28;20026;-78
2022/12/08 09:33:52;;;;;;;12.88;6.65;;;4.10;1.00;;;;;;4993935;28;20061;-78
2022/12/08 09:36:19;;;;;;;14.60;7.28;;;4.10;1.00;;;;;;4999042;28;20037;-77
2022/12/08 09:38:45;;;;;;;12.18;7.93;;;4.20;1.00;;;;;;5002612;28;20026;-78
2022/12/08 09:41:33;;;;;;;12.18;7.47;;;4.30;1.00;;;;;;5003033;28;20080;-77
2022/12/08 09:44:25;;;;;;;13.65;7.75;;;4.30;1.00;;;;;;5012611;28;20471;-77
2022/12/08 09:46:53;;;;;;;18.25;8.13;;;4.30;1.00;;;;;;4994285;28;20476;-76
2022/12/08 09:49:24;;;;;;;16.65;10.35;;;4.40;1.00;;;;;;4993587;28;20031;-78
2022/12/08 09:51:50;;;;;;;17.95;10.50;;;4.30;1.00;;;;;;4995857;28;20037;-81
2022/12/08 09:54:35;;;;;;;15.95;9.07;;;4.40;1.00;;;;;;4994106;28;20034;-81
2022/12/08 09:57:07;;;;;;;16.75;9.45;;;4.50;1.00;;;;;;4996888;28;20050;-79
2022/12/08 09:59:34;;;;;;;14.02;7.78;;;4.60;1.00;;;;;;4994466;28;20033;-80
2022/12/08 10:02:01;;;;;;;12.52;6.18;;;4.70;1.00;;;;;;4976338;28;20050;-80
2022/12/08 10:04:38;;;;;;;13.32;7.47;;;4.60;1.00;;;;;;4994764;28;20054;-80
2022/12/08 10:07:19;;;;;;;18.15;7.18;;;4.70;1.00;;;;;;4993375;28;20057;-80
2022/12/08 10:09:57;;;;;;;12.63;6.15;;;4.70;1.00;;;;;;4976911;28;20030;-80
2022/12/08 10:12:36;;;;;;;13.68;8.60;;;4.80;1.00;;;;;;4993700;28;20042;-80
2022/12/08 10:15:02;;;;;;;14.40;7.47;;;4.90;1.00;;;;;;4993050;28;20102;-78
2022/12/08 10:17:36;;;;;;;13.07;6.97;;;4.90;1.00;;;;;;4993687;28;20042;-80
2022/12/08 10:20:11;;;;;;;14.68;7.97;;;5.00;1.00;;;;;;4993151;28;20349;-79
2022/12/08 10:22:38;;;;;;;13.52;7.15;;;5.10;1.00;;;;;;4994256;28;20061;-80
2022/12/08 10:25:27;;;;;;;11.10;6.25;;;5.20;1.00;;;;;;4993089;28;20046;-79
2022/12/08 10:27:54;;;;;;;11.38;6.00;;;5.40;1.00;;;;;;4993814;28;20050;-81
2022/12/08 10:30:21;;;;;;;13.73;7.15;;;5.40;1.00;;;;;;4975469;28;20037;-80
2022/12/08 10:32:50;;;;;;;11.57;6.38;;;5.40;1.00;;;;;;5007655;28;20038;-80
2022/12/08 10:35:18;;;;;;;15.25;7.05;;;5.40;1.00;;;;;;5014598;28;20041;-80
2022/12/08 10:37:55;;;;;;;12.55;7.50;;;5.50;1.00;;;;;;4999288;28;20045;-81
2022/12/08 10:40:21;;;;;;;13.85;6.47;;;5.60;1.00;;;;;;4992973;28;20022;-80
2022/12/08 10:42:53;;;;;;;12.13;6.40;;;5.60;1.00;;;;;;4993681;28;20506;-79
2022/12/08 10:45:28;;;;;;;11.75;7.55;;;5.40;1.00;;;;;;4993532;28;20045;-80
2022/12/08 10:47:58;;;;;;;12.85;6.75;;;5.30;1.00;;;;;;4994667;28;20038;-79
2022/12/08 10:50:41;;;;;;;13.45;6.63;;;5.30;1.00;;;;;;4996695;28;20478;-80
2022/12/08 10:53:07;;;;;;;12.35;6.43;;;5.20;1.00;;;;;;4992955;28;20030;-79
2022/12/08 10:55:49;;;;;;;12.95;7.05;;;5.30;1.00;;;;;;4993987;28;20023;-79
2022/12/08 10:58:26;;;;;;;13.68;6.90;;;5.40;1.00;;;;;;4992918;28;20034;-80
2022/12/08 11:01:01;;;;;;;12.93;5.85;;;5.40;1.00;;;;;;4993483;28;20034;-79
2022/12/08 11:03:34;;;;;;;14.07;5.97;;;5.50;1.00;;;;;;4993446;28;20050;-81
2022/12/08 11:06:11;;;;;;;10.68;6.00;;;5.50;1.00;;;;;;4993144;28;20034;-77
2022/12/08 11:08:47;;;;;;;13.10;6.68;;;5.60;1.00;;;;;;4993733;28;20034;-80
2022/12/08 11:11:13;;;;;;;12.77;7.53;;;5.80;1.00;;;;;;4975589;28;20046;-80
2022/12/08 11:13:41;;;;;;;15.43;7.05;;;5.90;1.00;;;;;;4993595;28;20038;-80
2022/12/08 11:16:10;;;;;;;18.35;6.32;;;5.90;1.00;;;;;;4975636;28;20037;-80
2022/12/08 11:18:42;;;;;;;25.33;12.63;;;5.80;1.00;;;;;;4992804;28;20038;-81
2022/12/08 11:21:35;;;;;;;12.55;6.82;;;5.70;1.00;;;;;;4991923;28;20035;-81
2022/12/08 11:24:16;;;;;;;9.00;5.20;;;5.60;1.00;;;;;;4984284;28;20050;-77
2022/12/08 11:26:50;;;;;;;7.05;4.60;;;5.50;1.00;;;;;;4992638;28;20033;-81
2022/12/08 11:29:16;;;;;;;9.30;5.93;;;5.40;1.00;;;;;;4991989;28;20049;-81
2022/12/08 11:31:58;;;;;;;9.95;4.68;;;5.50;1.00;;;;;;4992732;28;20030;-80
2022/12/08 11:34:43;;;;;;;11.02;5.85;;;5.60;1.00;;;;;;4974549;28;20285;-80
2022/12/08 11:37:21;;;;;;;9.05;5.82;;;5.60;1.00;;;;;;4991880;28;20110;-80
2022/12/08 11:39:53;;;;;;;8.40;5.13;;;5.60;1.00;;;;;;4978353;28;20046;-81
2022/12/08 11:42:23;;;;;;;8.10;5.15;;;5.60;1.00;;;;;;4992154;28;20045;-81
2022/12/08 11:44:57;;;;;;;8.73;5.15;;;5.60;1.00;;;;;;4993134;28;20391;-80
2022/12/08 11:47:43;;;;;;;9.35;5.30;;;5.70;1.00;;;;;;4992153;28;20033;-80
2022/12/08 11:50:16;;;;;;;11.95;6.65;;;5.70;1.00;;;;;;4992124;28;20042;-80
2022/12/08 11:52:49;;;;;;;12.75;5.50;;;5.60;1.00;;;;;;4992207;28;20030;-81
2022/12/08 11:55:29;;;;;;;10.88;5.72;;;5.70;1.00;;;;;;4991676;28;20042;-80
2022/12/08 11:58:10;;;;;;;11.50;7.40;;;5.70;1.00;;;;;;4992688;28;20026;-80
2022/12/08 12:00:36;;;;;;;9.13;5.63;;;5.80;1.00;;;;;;4992942;28;20034;-80
2022/12/08 12:03:22;;;;;;;9.88;5.50;;;5.70;1.00;;;;;;4991655;28;20047;-78
2022/12/08 12:06:29;;;;;;;9.30;5.93;;;5.60;1.00;;;;;;4994923;28;20050;-80
2022/12/08 12:09:36;;;;;;;9.05;5.82;;;5.60;1.00;;;;;;4996356;28;20395;-80
2022/12/08 12:12:29;;;;;;;11.80;6.60;;;5.40;1.00;;;;;;4992773;28;20042;-80
2022/12/08 12:15:20;;;;;;;10.15;6.30;;;5.30;1.00;;;;;;4996939;28;20043;-80
2022/12/08 12:17:58;;;;;;;14.55;6.68;;;5.40;1.00;;;;;;4996126;28;20030;-81
2022/12/08 12:20:35;;;;;;;8.77;5.55;;;5.40;1.00;;;;;;4995927;28;20030;-82
2022/12/08 12:23:15;;;;;;;11.68;6.57;;;5.20;1.00;;;;;;4978512;28;20034;-80
2022/12/08 12:26:15;;;;;;;13.27;7.50;;;5.20;1.00;;;;;;4995879;28;20372;-81
2022/12/08 12:29:01;;;;;;;10.50;7.35;;;5.30;1.00;;;;;;4995607;28;20074;-80
2022/12/08 12:31:37;;;;;;;13.88;7.18;;;5.40;1.00;;;;;;4997074;28;20042;-80
2022/12/08 12:34:24;;;;;;;10.98;6.32;;;5.40;1.00;;;;;;4978125;28;20055;-80
2022/12/08 12:36:57;;;;;;;10.02;5.75;;;5.40;1.00;;;;;;4995787;28;20357;-80
2022/12/08 12:39:29;;;;;;;11.43;5.88;;;5.40;1.00;;;;;;4994878;28;20038;-81
2022/12/08 12:42:01;;;;;;;9.73;6.80;;;5.40;1.00;;;;;;4978225;28;20069;-80
2022/12/08 12:44:27;;;;;;;10.63;5.72;;;5.40;1.00;;;;;;4994735;28;20038;-80
2022/12/08 12:46:53;;;;;;;14.45;9.63;;;5.40;1.00;;;;;;4995952;28;20034;-80
2022/12/08 12:49:37;;;;;;;11.18;6.95;;;5.40;1.00;;;;;;4994958;28;20049;-80
2022/12/08 12:52:15;;;;;;;10.70;6.15;;;5.40;1.00;;;;;;4995795;28;20026;-80
2022/12/08 12:54:43;;;;;;;8.52;5.78;;;5.40;1.00;;;;;;4978788;28;20055;-82
2022/12/08 12:57:15;;;;;;;11.25;5.35;;;5.50;1.00;;;;;;4994717;28;20030;-77
2022/12/08 12:59:45;;;;;;;9.10;5.10;;;5.40;1.00;;;;;;4978449;28;20099;-80
2022/12/08 13:02:32;;;;;;;7.50;3.77;;;5.40;1.00;;;;;;4976583;28;20041;-80
2022/12/08 13:05:17;;;;;;;8.88;6.05;;;5.40;1.00;;;;;;4995281;28;20305;-81
2022/12/08 13:07:52;;;;;;;11.00;5.88;;;5.30;1.00;;;;;;4977970;28;20042;-81
2022/12/08 13:10:22;;;;;;;9.40;6.38;;;5.20;1.00;;;;;;4994432;28;20041;-80
2022/12/08 13:13:09;;;;;;;11.50;5.43;;;5.30;1.00;;;;;;4994790;28;20026;-80